Weather at Breznik

Public forecast

Using degrees Celsius for public forecast. Weather courtesy of forecast.io.

Closest aviation weather report (METAR) to Breznik

Closest report is Sofia Airport, 22.7 nm (42.1 km) E. Retrieved 2022/06/27 12:00 UTC (12 minutes ago):

LBSF 271200Z 05006KT 360V080 9999 FEW053 SCT072 BKN083 26/15 Q1019 NOSIG

Closest aviation forecast (TAF) to Breznik

Closest forecast is Sofia Airport, 22.7 nm (42.1 km) E. Retrieved 2022/06/27 12:18 UTC (0 seconds ago):

TAF LBSF 271100Z 2712/2812 03010KT 9999 SCT040 BECMG 2718/2720 VRB04KT TEMPO 2800/2805 3000 BR SCT010 BECMG 2808/2810 03010KT